クルモフ国際空港の過去48時間の天気

クルモフ国際空港 (Samara)

現在時刻: 8/18 16:08 MSK (8/18 13:08 UTC) 以下の時間は現地時間です。

過去48時間のMETAR気象情報
時間 風向 風速(m/s) 視程 気温(℃) 湿度(%) 気圧(hPa) 天気現象
18 15:30 東北東 6 10km以上 28 30 1021
18 15:00 5 10km以上 28 30 1021
18 14:30 6 10km以上 28 28 1021
18 14:00 7 10km以上 28 30 1021
18 13:30 東北東 6 10km以上 27 32 1021
18 13:00 7 10km以上 27 32 1022
18 12:30 8 10km以上 27 32 1022
18 12:00 8 10km以上 27 32 1022
18 11:30 8 10km以上 25 34 1021
18 11:00 9 10km以上 25 32 1022
18 10:30 7 10km以上 26 32 1022
18 10:00 7 10km以上 25 30 1022
18 09:30 6 10km以上 24 34 1022
18 09:00 東北東 6 10km以上 23 36 1022
18 08:30 6 10km以上 21 40 1022
18 08:00 6 10km以上 21 40 1022
18 07:30 5 10km以上 20 40 1022
18 07:00 5 10km以上 20 40 1022
18 06:30 4 10km以上 19 43 1022
18 06:00 東北東 3 10km以上 17 48 1022
18 05:30 東北東 3 10km以上 17 52 1022
18 05:00 3 10km以上 17 48 1022
18 04:30 3 10km以上 17 52 1022
18 04:00 東北東 4 10km以上 16 55 1021
18 03:30 東北東 4 10km以上 16 55 1021
18 03:00 東北東 4 10km以上 17 55 1021
18 02:30 4 10km以上 17 55 1021
18 02:00 3 10km以上 17 59 1021
18 01:30 3 10km以上 18 56 1021
18 01:00 3 10km以上 18 56 1020
18 00:30 東北東 4 10km以上 18 56 1020
18 00:00 3 10km以上 19 49 1020
17 23:30 東北東 4 10km以上 20 46 1020
17 23:00 東北東 4 10km以上 21 43 1020
17 22:30 東北東 3 10km以上 20 46 1020
17 22:00 東北東 3 10km以上 21 40 1020
17 21:30 東北東 4 10km以上 21 40 1020
17 21:00 北東 3 10km以上 22 38 1020
17 20:30 北東 3 10km以上 23 36 1020
17 20:00 北東 3 10km以上 24 34 1020
17 19:30 北東 3 10km以上 24 34 1020
17 19:00 3 10km以上 24 34 1020
17 18:30 3 10km以上 26 30 1020
17 18:00 4 10km以上 27 26 1020
17 17:30 5 10km以上 28 23 1020
17 17:00 東南東 5 10km以上 29 23 1020
17 16:30 5 10km以上 29 22 1020
17 16:00 東南東 5 10km以上 29 23 1020
17 15:30 6 10km以上 29 23 1021
17 15:00 東南東 5 10km以上 29 23 1021
17 14:30 東南東 5 10km以上 28 23 1021
17 14:00 5 10km以上 29 20 1021
17 13:30 6 10km以上 29 20 1021
17 13:00 東南東 6 10km以上 28 22 1022
17 12:30 東南東 6 10km以上 28 23 1022
17 12:00 6 10km以上 27 26 1022
17 11:30 東南東 7 10km以上 27 26 1022
17 11:00 6 10km以上 27 28 1022
17 10:30 5 10km以上 26 28 1022
17 10:00 4 10km以上 25 34 1022
17 09:30 東北東 5 10km以上 25 32 1023
17 09:00 4 10km以上 23 38 1023
17 08:30 3 10km以上 23 38 1023
17 08:00 3 10km以上 21 43 1023
17 07:30 3 10km以上 20 46 1023
17 07:00 東北東 3 10km以上 19 49 1023
17 06:30 2 10km以上 18 52 1023
17 06:00 2 10km以上 18 52 1023
17 05:30 1 10km以上 17 55 1023
17 05:00 不定 1 10km以上 16 59 1023
17 04:30 静穏 0 10km以上 15 59 1023
17 04:00 静穏 0 10km以上 16 55 1023
17 03:30 不定 1 10km以上 16 59 1023
17 03:00 北東 2 10km以上 16 59 1023
17 02:30 北東 2 10km以上 15 63 1023
17 02:00 東北東 3 10km以上 15 63 1023
17 01:30 東北東 2 10km以上 16 59 1023
17 01:00 東北東 3 10km以上 16 59 1023
17 00:30 東北東 3 10km以上 17 55 1023
17 00:00 東北東 2 10km以上 17 55 1023
16 23:30 東北東 2 10km以上 18 52 1023
16 23:00 東北東 1 10km以上 19 49 1023
16 22:30 不定 1 10km以上 19 49 1023
16 22:00 東北東 2 10km以上 20 46 1023
16 21:30 北東 2 10km以上 20 46 1023
16 21:00 静穏 0 10km以上 20 46 1023
16 20:30 不定 1 10km以上 22 41 1023
16 20:00 北東 2 10km以上 23 38 1023
16 19:30 北東 3 10km以上 24 36 1023
16 19:00 東北東 2 10km以上 23 36 1022
16 18:30 3 10km以上 25 32 1022
16 18:00 3 10km以上 27 28 1022
16 17:30 4 10km以上 28 27 1022
16 17:00 4 10km以上 28 28 1022
16 16:30 5 10km以上 29 27 1022
UWWW 181230Z 07006MPS CAVOK 28/09 Q1021 R15/CLRD60 NOSIG RMK QFE754/1006
UWWW 181200Z 09005MPS 060V130 CAVOK 28/09 Q1021 R15/CLRD60 NOSIG RMK QFE754/1006
UWWW 181130Z 10006MPS 060V140 CAVOK 28/08 Q1021 R15/CLRD60 NOSIG RMK QFE754/1005
UWWW 181100Z 09007MPS 060V120 CAVOK 28/09 Q1021 R15/CLRD60 NOSIG RMK QFE754/1006
UWWW 181030Z 07006MPS 040V110 CAVOK 27/09 Q1021 R15/CLRD60 NOSIG RMK QFE754/1006
UWWW 181000Z 09007MPS 070V130 CAVOK 27/09 Q1022 R15/CLRD60 NOSIG RMK QFE754/1006
UWWW 180930Z 10008MPS CAVOK 27/09 Q1022 R15/CLRD60 NOSIG RMK QFE755/1006
UWWW 180900Z 10008MPS 060V130 CAVOK 27/09 Q1022 R15/CLRD60 NOSIG RMK QFE754/1006
UWWW 180830Z 09008MPS 060V120 CAVOK 25/08 Q1021 R15/CLRD60 NOSIG RMK QFE754/1006
UWWW 180800Z 10009MPS 060V120 CAVOK 25/07 Q1022 R15/CLRD60 NOSIG RMK QFE754/1006
UWWW 180730Z 10007MPS CAVOK 26/08 Q1022 R15/CLRD60 NOSIG RMK QFE755/1006
UWWW 180700Z 09007MPS CAVOK 25/06 Q1022 R15/CLRD60 NOSIG RMK QFE755/1007
UWWW 180630Z 08006MPS CAVOK 24/07 Q1022 R15/CLRD60 NOSIG RMK QFE755/1006
UWWW 180600Z 07006MPS CAVOK 23/07 Q1022 R15/CLRD60 NOSIG RMK QFE755/1006
UWWW 180530Z 08006MPS CAVOK 21/07 Q1022 R15/CLRD60 NOSIG RMK QFE755/1006
UWWW 180500Z 09006MPS CAVOK 21/07 Q1022 R15/CLRD60 NOSIG RMK QFE755/1006
UWWW 180430Z 08005MPS CAVOK 20/06 Q1022 R15/CLRD60 NOSIG RMK QFE754/1006
UWWW 180400Z 08005MPS CAVOK 20/06 Q1022 R15/CLRD60 NOSIG RMK QFE755/1006
UWWW 180330Z 08004MPS CAVOK 19/06 Q1022 R15/CLRD60 NOSIG RMK QFE755/1006
UWWW 180300Z 06003MPS CAVOK 17/06 Q1022 R15/CLRD60 NOSIG RMK QFE755/1006
UWWW 180230Z 07003MPS CAVOK 17/07 Q1022 R15/CLRD60 NOSIG RMK QFE755/1006
UWWW 180200Z 08003MPS 060V130 CAVOK 17/06 Q1022 R15/CLRD60 NOSIG RMK QFE755/1006
UWWW 180130Z 08003MPS CAVOK 17/07 Q1022 R15/CLRD60 NOSIG RMK QFE754/1006
UWWW 180100Z 06004MPS 050V120 CAVOK 16/07 Q1021 R15/CLRD60 NOSIG RMK QFE754/1006
UWWW 180030Z 06004MPS 010V090 CAVOK 16/07 Q1021 R15/CLRD60 NOSIG RMK QFE754/1006
UWWW 180000Z 07004MPS CAVOK 17/08 Q1021 R15/CLRD60 NOSIG RMK QFE754/1006
UWWW 172330Z 08004MPS CAVOK 17/08 Q1021 R15/CLRD60 NOSIG RMK QFE754/1006
UWWW 172300Z 10003MPS CAVOK 17/09 Q1021 R15/CLRD60 NOSIG RMK QFE754/1005
UWWW 172230Z 10003MPS CAVOK 18/09 Q1021 R15/CLRD60 NOSIG RMK QFE754/1005
UWWW 172200Z 08003MPS CAVOK 18/09 Q1020 R15/CLRD60 NOSIG RMK QFE754/1005
UWWW 172130Z 07004MPS CAVOK 18/09 Q1020 R15/CLRD60 NOSIG RMK QFE753/1005
UWWW 172100Z 09003MPS CAVOK 19/08 Q1020 R15/CLRD60 NOSIG RMK QFE753/1005
UWWW 172030Z 07004MPS CAVOK 20/08 Q1020 R15/CLRD60 NOSIG RMK QFE753/1005
UWWW 172000Z 07004MPS CAVOK 21/08 Q1020 R15/CLRD60 NOSIG RMK QFE753/1004
UWWW 171930Z 07003MPS 060V130 CAVOK 20/08 Q1020 R15/CLRD60 NOSIG RMK QFE753/1004
UWWW 171900Z 07003MPS CAVOK 21/07 Q1020 R15/CLRD60 NOSIG RMK QFE753/1004
UWWW 171830Z 07004MPS 060V120 CAVOK 21/07 Q1020 R15/CLRD60 NOSIG RMK QFE753/1004
UWWW 171800Z 05003MPS CAVOK 22/07 Q1020 R15/CLRD60 NOSIG RMK QFE753/1005
UWWW 171730Z 05003MPS 040V130 CAVOK 23/07 Q1020 R15/CLRD60 NOSIG RMK QFE753/1005
UWWW 171700Z 04003MPS CAVOK 24/07 Q1020 R15/CLRD60 NOSIG RMK QFE753/1005
UWWW 171630Z 05003MPS 320V060 CAVOK 24/07 Q1020 R15/CLRD60 NOSIG RMK QFE753/1005
UWWW 171600Z 08003MPS CAVOK 24/07 Q1020 R15/CLRD60 NOSIG RMK QFE753/1005
UWWW 171530Z 09003MPS CAVOK 26/07 Q1020 R15/CLRD60 NOSIG RMK QFE753/1005
UWWW 171500Z 10004MPS CAVOK 27/06 Q1020 R15/CLRD60 NOSIG RMK QFE753/1005
UWWW 171430Z 10005MPS 070V130 CAVOK 28/05 Q1020 R15/CLRD60 NOSIG RMK QFE753/1005
UWWW 171400Z 11005MPS CAVOK 29/06 Q1020 R15/CLRD60 NOSIG RMK QFE753/1005
UWWW 171330Z 09005MPS 070V130 CAVOK 29/05 Q1020 R15/CLRD60 NOSIG RMK QFE754/1005
UWWW 171300Z 11005MPS 080V140 CAVOK 29/06 Q1020 R15/CLRD60 NOSIG RMK QFE754/1005
UWWW 171230Z 10006MPS 060V140 CAVOK 29/06 Q1021 R15/CLRD60 NOSIG RMK QFE754/1005
UWWW 171200Z 12005MPS CAVOK 29/06 Q1021 R15/CLRD60 NOSIG RMK QFE754/1005
UWWW 171130Z 11005MPS 040V150 CAVOK 28/05 Q1021 R15/CLRD60 NOSIG RMK QFE754/1006
UWWW 171100Z 09005MPS 040V130 CAVOK 29/04 Q1021 R15/CLRD60 NOSIG RMK QFE754/1006
UWWW 171030Z 09006MPS 050V120 CAVOK 29/04 Q1021 R15/CLRD60 NOSIG RMK QFE754/1006
UWWW 171000Z 12006MPS 090V160 CAVOK 28/04 Q1022 R15/CLRD60 NOSIG RMK QFE754/1006
UWWW 170930Z 12006G11MPS 090V150 CAVOK 28/05 Q1022 R15/CLRD60 NOSIG RMK QFE755/1006
UWWW 170900Z 08006MPS CAVOK 27/06 Q1022 R15/CLRD60 NOSIG RMK QFE755/1006
UWWW 170830Z 11007MPS CAVOK 27/06 Q1022 R33/CLRD60 NOSIG RMK QFE756/1008
UWWW 170800Z 08006MPS 030V140 CAVOK 27/07 Q1022 R33/CLRD60 NOSIG RMK QFE756/1008
UWWW 170730Z 08005MPS 050V110 CAVOK 26/06 Q1022 R33/CLRD60 NOSIG RMK QFE756/1008
UWWW 170700Z 10004MPS 040V140 CAVOK 25/08 Q1022 R33/CLRD60 NOSIG RMK QFE756/1008
UWWW 170630Z 07005MPS 040V100 CAVOK 25/07 Q1023 R33/CLRD60 NOSIG RMK QFE756/1008
UWWW 170600Z 08004MPS 040V130 CAVOK 23/08 Q1023 R33/CLRD60 NOSIG RMK QFE756/1008
UWWW 170530Z 09003MPS 040V130 CAVOK 23/08 Q1023 R33/CLRD60 NOSIG RMK QFE756/1009
UWWW 170500Z 08003MPS 020V100 CAVOK 21/08 Q1023 R33/CLRD60 NOSIG RMK QFE757/1009
UWWW 170430Z 09003MPS CAVOK 20/08 Q1023 R33/CLRD60 NOSIG RMK QFE756/1009
UWWW 170400Z 07003MPS CAVOK 19/08 Q1023 R33/CLRD60 NOSIG RMK QFE756/1009
UWWW 170330Z 08002MPS CAVOK 18/08 Q1023 R33/CLRD60 NOSIG RMK QFE756/1009
UWWW 170300Z 09002MPS 050V120 CAVOK 18/08 Q1023 R33/CLRD60 NOSIG RMK QFE756/1009
UWWW 170230Z 09001MPS CAVOK 17/08 Q1023 R33/CLRD60 NOSIG RMK QFE756/1009
UWWW 170200Z VRB01MPS CAVOK 16/08 Q1023 R33/CLRD60 NOSIG RMK QFE756/1009
UWWW 170130Z 00000MPS CAVOK 15/07 Q1023 R33/CLRD60 NOSIG RMK QFE756/1009
UWWW 170100Z 00000MPS CAVOK 16/07 Q1023 R33/CLRD60 NOSIG RMK QFE756/1009
UWWW 170030Z VRB01MPS CAVOK 16/08 Q1023 R33/CLRD60 NOSIG RMK QFE756/1009
UWWW 170000Z 04002MPS 350V070 CAVOK 16/08 Q1023 R33/CLRD60 NOSIG RMK QFE756/1009
UWWW 162330Z 04002MPS 330V090 CAVOK 15/08 Q1023 R33/CLRD60 NOSIG RMK QFE756/1009
UWWW 162300Z 06003MPS CAVOK 15/08 Q1023 R33/CLRD60 NOSIG RMK QFE756/1009
UWWW 162230Z 06002MPS CAVOK 16/08 Q1023 R33/CLRD60 NOSIG RMK QFE756/1008
UWWW 162200Z 06003MPS CAVOK 16/08 Q1023 R33/CLRD60 NOSIG RMK QFE756/1008
UWWW 162130Z 07003MPS CAVOK 17/08 Q1023 R33/CLRD60 NOSIG RMK QFE756/1008
UWWW 162100Z 06002MPS CAVOK 17/08 Q1023 R33/CLRD60 NOSIG RMK QFE756/1008
UWWW 162030Z 06002MPS CAVOK 18/08 Q1023 R33/CLRD60 NOSIG RMK QFE756/1008
UWWW 162000Z 06001MPS CAVOK 19/08 Q1023 R33/CLRD60 NOSIG RMK QFE756/1009
UWWW 161930Z VRB01MPS CAVOK 19/08 Q1023 R33/CLRD60 NOSIG RMK QFE756/1008
UWWW 161900Z 07002MPS CAVOK 20/08 Q1023 R33/CLRD60 NOSIG RMK QFE756/1008
UWWW 161830Z 04002MPS 010V070 CAVOK 20/08 Q1023 R33/CLRD60 NOSIG RMK QFE756/1008
UWWW 161800Z 00000MPS CAVOK 20/08 Q1023 R33/CLRD60 NOSIG RMK QFE756/1008
UWWW 161730Z VRB01MPS CAVOK 22/08 Q1023 R33/CLRD60 NOSIG RMK QFE756/1008
UWWW 161700Z 04002MPS CAVOK 23/08 Q1023 R33/CLRD60 NOSIG RMK QFE756/1008
UWWW 161630Z 04003MPS CAVOK 24/08 Q1023 R33/CLRD60 NOSIG RMK QFE756/1008
UWWW 161600Z 07002MPS CAVOK 23/07 Q1022 R33/CLRD60 NOSIG RMK QFE756/1008
UWWW 161530Z 09003MPS CAVOK 25/07 Q1022 R33/CLRD60 NOSIG RMK QFE756/1008
UWWW 161500Z 08003MPS 040V100 CAVOK 27/07 Q1022 R33/CLRD60 NOSIG RMK QFE756/1008
UWWW 161430Z 09004MPS CAVOK 28/07 Q1022 R33/CLRD60 NOSIG RMK QFE756/1008
UWWW 161400Z 09004MPS CAVOK 28/08 Q1022 R33/CLRD60 NOSIG RMK QFE756/1008
UWWW 161330Z 08005MPS CAVOK 29/08 Q1022 R33/CLRD60 NOSIG RMK QFE755/1007